Sunday, January 25, 2015, 3:15 PM EST

KPTW, Pottstown Limerick Airport

Location: Royersford, PA, United States Lat: 40.233
Local Time: 3:15 PM EST (20:15 GMT) Lon: -75.55
Time Zone: US/Eastern Elev: 291 ft

Show me the last for .
Show Decoded

2015-01-25 14:54 METAR KPTW 251954Z AUTO 29007KT 10SM SCT028 OVC035 04/M01 A2982 RMK AO2 SLP097
                 T00391011 =
2015-01-25 13:54 METAR KPTW 251854Z AUTO 31007KT 10SM FEW036 04/M01 A2980 RMK AO2 SLP090
                 T00441011 =
2015-01-25 12:54 METAR KPTW 251754Z AUTO 28006KT 10SM BKN038 04/M01 A2981 RMK AO2 SLP094
                 T00441011 10050 20022 50008 =
2015-01-25 11:54 METAR KPTW 251654Z AUTO 25007KT 10SM BKN037 OVC045 04/M02 A2982 RMK AO2 SLP098
                 T00441017 =
2015-01-25 10:54 METAR KPTW 251554Z AUTO 25004KT 10SM OVC035 03/M02 A2981 RMK AO2 SLP096
                 T00331022 =
2015-01-25 09:54 METAR KPTW 251454Z AUTO 25004KT 10SM OVC034 03/M02 A2979 RMK AO2 SLP086
                 T00331022 51021 =
2015-01-25 08:54 METAR KPTW 251354Z AUTO 26006KT 10SM FEW034 BKN050 OVC060 03/M02 A2977 RMK AO2
                 SLP081 T00331022 =
2015-01-25 07:54 METAR KPTW 251254Z AUTO 25007KT 10SM OVC060 03/M03 A2975 RMK AO2 SLP076
                 T00281028 =
2015-01-25 06:54 METAR KPTW 251154Z AUTO 25007KT 10SM SCT039 OVC055 02/M03 A2972 RMK AO2 SLP065
                 70001 T00221028 10022 20006 53024 =
2015-01-25 04:54 METAR KPTW 250954Z AUTO 25005KT 10SM SCT034 OVC060 01/M03 A2967 RMK AO2 SLP048
                 T00111033 =
2015-01-25 03:54 METAR KPTW 250854Z AUTO 25005KT 10SM BKN033 01/M03 A2965 RMK AO2 SLP041
                 T00111033 51018 =
2015-01-25 02:54 METAR KPTW 250754Z AUTO 27005KT 10SM OVC031 02/M03 A2965 RMK AO2 SLP040
                 T00171033 =
2015-01-25 01:54 METAR KPTW 250654Z AUTO 27006KT 10SM BKN032 OVC065 01/M04 A2963 RMK AO2 SLP032
                 T00111039 =
2015-01-25 00:54 METAR KPTW 250554Z AUTO 28009G15KT 10SM OVC032 01/M04 A2960 RMK AO2 SLP022
                 T00111039 10017 20006 53020 =
2015-01-24 23:54 METAR KPTW 250454Z AUTO 30007G15KT 10SM BKN031 OVC065 01/M04 A2957 RMK AO2
                 SLP014 T00111044 400281006 =
2015-01-24 22:54 METAR KPTW 250354Z AUTO 29010G17KT 10SM SCT034 OVC075 01/M04 A2955 RMK AO2
                 SLP007 T00061044 =
2015-01-24 21:54 METAR KPTW 250254Z AUTO 29009KT 10SM SCT070 01/M05 A2954 RMK AO2 SLP002
                 T00111050 53026 =
2015-01-24 20:54 METAR KPTW 250154Z AUTO 28006KT 10SM OVC070 01/M04 A2950 RMK AO2 SLP991
                 T00111044 =
2015-01-24 19:54 METAR KPTW 250054Z AUTO 28008KT 10SM CLR 02/M04 A2948 RMK AO2 SLP983 T00171039 =
2015-01-24 18:54 METAR KPTW 242354Z AUTO 27006KT 10SM CLR 02/M02 A2946 RMK AO2 SLP976 T00171017
                 10028 20011 53025 =
2015-01-24 17:54 METAR KPTW 242254Z AUTO 27006KT 10SM CLR 02/M02 A2943 RMK AO2 SLP967 T00171017 =
2015-01-24 16:54 METAR KPTW 242154Z AUTO 29010KT 9SM FEW023 BKN100 02/M01 A2941 RMK AO2 SLP958
                 T00221011 =
2015-01-24 16:46 METAR KPTW 242146Z AUTO 29009KT 9SM FEW020 SCT024 BKN100 02/M01 A2940 RMK AO2
                 T00221011 =
2015-01-24 16:22 METAR KPTW 242122Z AUTO 29007KT 9SM BKN020 BKN085 OVC100 02/00 A2940 RMK AO2
                 T00220000 =
2015-01-24 15:54 METAR KPTW 242054Z AUTO 28007KT 7SM BKN070 OVC085 02/00 A2939 RMK AO2 SLP951
                 T00220000 55003 =

Support USWX by starting your Amazon purchase here.